createdAt,value
2022-11-24T00:00:33.224Z,5.03
2022-11-24T00:01:35.258Z,4.05
2022-11-24T00:02:37.287Z,3.72
2022-11-24T00:03:39.455Z,4.78
2022-11-24T00:04:41.431Z,4.40
2022-11-24T00:05:43.406Z,4.75
2022-11-24T00:06:45.378Z,3.90
2022-11-24T00:07:47.401Z,4.13
2022-11-24T00:08:49.486Z,3.90
2022-11-24T00:09:51.358Z,4.43
2022-11-24T00:10:53.284Z,4.75
2022-11-24T00:11:55.177Z,4.20
2022-11-24T00:12:57.054Z,4.05
2022-11-24T00:13:59.377Z,3.92
2022-11-24T00:15:01.306Z,4.45
2022-11-24T00:16:14.595Z,4.55
2022-11-24T00:17:16.558Z,4.20
2022-11-24T00:18:18.463Z,4.07
2022-11-24T00:19:20.466Z,4.70
2022-11-24T00:20:22.353Z,4.43
2022-11-24T00:21:24.822Z,4.05
2022-11-24T00:22:26.758Z,4.28
2022-11-24T00:23:28.667Z,4.28
2022-11-24T00:24:30.793Z,5.07
2022-11-24T00:25:32.818Z,5.15
2022-11-24T00:26:37.308Z,4.38
2022-11-24T00:27:39.247Z,5.13
2022-11-24T00:28:41.817Z,4.18
2022-11-24T00:29:43.785Z,5.07
2022-11-24T00:30:45.735Z,5.18
2022-11-24T00:31:47.703Z,4.90
2022-11-24T00:32:49.626Z,5.25
2022-11-24T00:33:53.258Z,5.63
2022-11-24T00:34:55.155Z,4.93
2022-11-24T00:35:57.799Z,4.35
2022-11-24T00:36:59.691Z,4.30
2022-11-24T00:38:01.757Z,5.45
2022-11-24T00:39:05.549Z,6.00
2022-11-24T00:40:07.891Z,5.22
2022-11-24T00:41:09.809Z,5.22
2022-11-24T00:42:11.731Z,4.80
2022-11-24T00:43:13.627Z,5.50
2022-11-24T00:44:15.618Z,5.50
2022-11-24T00:45:17.502Z,5.80
2022-11-24T00:46:19.725Z,5.78
2022-11-24T00:47:21.803Z,5.13
2022-11-24T00:48:23.795Z,5.25
2022-11-24T00:49:25.709Z,5.88
2022-11-24T00:50:28.122Z,5.35
2022-11-24T00:51:30.446Z,5.25
2022-11-24T00:52:32.428Z,5.50
2022-11-24T00:53:34.692Z,5.38
2022-11-24T00:54:36.637Z,6.53
2022-11-24T00:55:38.550Z,5.50
2022-11-24T00:56:40.468Z,5.80
2022-11-24T00:57:42.393Z,5.63
2022-11-24T00:58:44.352Z,6.53
2022-11-24T00:59:46.240Z,7.15
2022-11-24T01:00:48.410Z,5.80
2022-11-24T01:01:50.360Z,6.28
2022-11-24T01:02:52.649Z,6.38
2022-11-24T01:03:55.381Z,6.13
2022-11-24T01:04:57.283Z,5.75
2022-11-24T01:06:05.241Z,6.63
2022-11-24T01:07:07.297Z,5.97
2022-11-24T01:08:09.490Z,6.97
2022-11-24T01:09:12.015Z,6.50
2022-11-24T01:10:13.960Z,7.22
2022-11-24T01:11:17.662Z,6.22
2022-11-24T01:12:19.606Z,7.03
2022-11-24T01:13:21.501Z,6.85
2022-11-24T01:14:24.501Z,7.22
2022-11-24T01:15:26.560Z,6.82
2022-11-24T01:16:29.547Z,8.35
2022-11-24T01:17:31.465Z,6.65
2022-11-24T01:18:33.365Z,6.60
2022-11-24T01:19:35.259Z,7.18
2022-11-24T01:20:37.730Z,7.13
2022-11-24T01:21:39.995Z,7.15
2022-11-24T01:22:42.371Z,8.05
2022-11-24T01:23:44.303Z,7.32
2022-11-24T01:24:46.587Z,6.15
2022-11-24T01:25:48.495Z,6.45
2022-11-24T01:26:50.442Z,6.63
2022-11-24T01:27:52.606Z,6.47
2022-11-24T01:28:55.135Z,6.93
2022-11-24T01:29:57.146Z,6.55
2022-11-24T01:31:03.094Z,7.43
2022-11-24T01:32:05.154Z,5.55
2022-11-24T01:33:07.048Z,7.35
2022-11-24T01:34:09.314Z,6.80
2022-11-24T01:35:11.256Z,5.97
2022-11-24T01:36:13.498Z,5.80
2022-11-24T01:37:15.410Z,6.30
2022-11-24T01:38:17.392Z,7.70
2022-11-24T01:39:19.352Z,7.13
2022-11-24T01:40:21.329Z,6.88
2022-11-24T01:41:24.216Z,6.55
2022-11-24T01:42:26.134Z,6.50
2022-11-24T01:43:28.130Z,6.68
2022-11-24T01:44:30.787Z,7.28
2022-11-24T01:45:40.602Z,6.97
2022-11-24T01:46:43.791Z,6.38
2022-11-24T01:47:45.800Z,7.60
2022-11-24T01:49:06.062Z,6.43
2022-11-24T01:50:13.304Z,5.60
2022-11-24T01:51:17.733Z,6.55
2022-11-24T01:52:27.142Z,6.10
2022-11-24T01:53:29.059Z,6.53
2022-11-24T01:54:33.244Z,7.78
2022-11-24T01:55:37.797Z,7.10
2022-11-24T01:56:40.944Z,5.95
2022-11-24T01:57:51.732Z,7.32
2022-11-24T01:59:58.404Z,6.22
2022-11-24T02:01:01.059Z,6.53
2022-11-24T02:02:03.796Z,7.25
2022-11-24T02:03:05.771Z,7.07
2022-11-24T02:04:10.767Z,7.65
2022-11-24T02:05:17.917Z,6.85
2022-11-24T02:06:22.596Z,6.93
2022-11-24T02:07:25.165Z,5.95
2022-11-24T02:08:33.085Z,6.65
2022-11-24T02:09:40.449Z,6.05
2022-11-24T02:10:42.995Z,6.68
2022-11-24T02:11:45.089Z,7.82
2022-11-24T02:12:47.986Z,7.60
2022-11-24T02:13:51.636Z,6.60
2022-11-24T02:14:53.930Z,7.07
2022-11-24T02:15:55.903Z,6.25
2022-11-24T02:16:57.882Z,7.80
2022-11-24T02:17:59.836Z,7.15
2022-11-24T02:19:02.297Z,7.30
2022-11-24T02:20:05.688Z,7.20
2022-11-24T02:21:08.014Z,8.13
2022-11-24T02:22:33.036Z,7.60
2022-11-24T02:23:34.913Z,5.38
2022-11-24T02:24:55.938Z,7.30
2022-11-24T02:26:59.735Z,6.60
2022-11-24T02:28:04.208Z,7.03
2022-11-24T02:29:06.297Z,7.05
2022-11-24T02:30:08.418Z,7.80
2022-11-24T02:31:10.783Z,7.88
2022-11-24T02:32:12.772Z,8.20
2022-11-24T02:33:15.201Z,7.13
2022-11-24T02:34:17.166Z,6.70
2022-11-24T02:35:19.113Z,7.78
2022-11-24T02:36:21.106Z,7.45
2022-11-24T02:37:22.984Z,7.75
2022-11-24T02:38:32.311Z,6.43
2022-11-24T02:39:34.286Z,7.25
2022-11-24T02:40:36.344Z,7.80
2022-11-24T02:41:38.392Z,7.72
2022-11-24T02:42:42.979Z,6.43
2022-11-24T02:43:59.196Z,6.72
2022-11-24T02:45:01.154Z,6.60
2022-11-24T02:46:03.272Z,6.63
2022-11-24T02:47:09.269Z,7.50
2022-11-24T02:48:11.178Z,6.68
2022-11-24T02:49:13.081Z,6.63
2022-11-24T02:50:15.142Z,8.02
2022-11-24T02:51:17.211Z,6.05
2022-11-24T02:52:19.320Z,5.93
2022-11-24T02:53:21.278Z,7.80
2022-11-24T02:54:23.339Z,7.15
2022-11-24T02:55:25.528Z,7.22
2022-11-24T02:56:27.568Z,7.05
2022-11-24T02:57:29.503Z,8.20
2022-11-24T02:58:31.492Z,7.00
2022-11-24T02:59:33.504Z,6.85
2022-11-24T03:00:35.441Z,7.00
2022-11-24T03:01:37.466Z,6.50
2022-11-24T03:02:40.560Z,5.93
2022-11-24T03:03:42.669Z,6.15
2022-11-24T03:04:44.721Z,6.40
2022-11-24T03:05:46.897Z,7.55
2022-11-24T03:06:49.068Z,6.72
2022-11-24T03:07:51.096Z,6.13
2022-11-24T03:08:53.090Z,7.10
2022-11-24T03:09:55.011Z,6.97
2022-11-24T03:10:56.944Z,8.35
2022-11-24T03:11:58.884Z,6.78
2022-11-24T03:13:00.818Z,5.97
2022-11-24T03:14:02.710Z,7.35
2022-11-24T03:15:05.518Z,6.13
2022-11-24T03:16:10.582Z,6.50
2022-11-24T03:17:12.830Z,6.93
2022-11-24T03:18:14.779Z,6.28
2022-11-24T03:19:16.704Z,6.78
2022-11-24T03:20:18.868Z,8.02
2022-11-24T03:21:20.838Z,6.75
2022-11-24T03:22:22.751Z,6.25
2022-11-24T03:23:24.645Z,6.97
2022-11-24T03:24:26.717Z,6.38
2022-11-24T03:25:28.646Z,7.55
2022-11-24T03:26:33.592Z,6.78
2022-11-24T03:27:36.840Z,7.03
2022-11-24T03:28:39.114Z,6.97
2022-11-24T03:29:40.998Z,7.00
2022-11-24T03:30:43.031Z,6.65
2022-11-24T03:31:45.028Z,5.90
2022-11-24T03:32:47.004Z,6.68
2022-11-24T03:33:48.990Z,6.80
2022-11-24T03:34:50.885Z,7.25
2022-11-24T03:35:52.816Z,6.90
2022-11-24T03:36:54.744Z,7.65
2022-11-24T03:37:56.655Z,7.50
2022-11-24T03:38:58.623Z,7.00
2022-11-24T03:40:00.651Z,6.85
2022-11-24T03:41:02.579Z,6.90
2022-11-24T03:42:04.535Z,7.15
2022-11-24T03:43:06.447Z,7.13
2022-11-24T03:44:08.381Z,6.22
2022-11-24T03:46:32.338Z,6.93
2022-11-24T03:47:34.288Z,6.45
2022-11-24T03:48:36.186Z,6.90
2022-11-24T03:49:38.259Z,6.35
2022-11-24T03:50:40.246Z,8.20
2022-11-24T03:51:42.140Z,7.25
2022-11-24T03:52:44.035Z,6.65
2022-11-24T03:53:45.981Z,6.50
2022-11-24T03:54:47.868Z,6.93
2022-11-24T03:55:49.782Z,6.88
2022-11-24T03:56:51.715Z,5.95
2022-11-24T03:57:53.632Z,7.05
2022-11-24T03:58:55.981Z,7.40
2022-11-24T03:59:57.884Z,7.30
2022-11-24T04:00:59.777Z,7.25
2022-11-24T04:02:01.768Z,6.47
2022-11-24T04:03:03.894Z,7.45
2022-11-24T04:04:05.859Z,6.35
2022-11-24T04:05:08.040Z,7.13
2022-11-24T04:06:10.048Z,7.22
2022-11-24T04:07:11.949Z,6.82
2022-11-24T04:08:14.164Z,6.32
2022-11-24T04:09:16.113Z,6.35
2022-11-24T04:10:18.028Z,5.97
2022-11-24T04:11:38.713Z,7.82
2022-11-24T04:12:46.663Z,5.82
2022-11-24T04:13:48.667Z,6.15
2022-11-24T04:14:50.559Z,7.25
2022-11-24T04:15:52.651Z,6.40
2022-11-24T04:16:54.554Z,6.82
2022-11-24T04:17:56.872Z,5.72
2022-11-24T04:18:58.792Z,7.30
2022-11-24T04:20:00.669Z,6.35
2022-11-24T04:21:02.551Z,7.28
2022-11-24T04:22:04.419Z,5.95
2022-11-24T04:23:06.351Z,6.47
2022-11-24T04:24:08.231Z,5.63
2022-11-24T04:25:10.577Z,6.57
2022-11-24T04:26:12.845Z,6.35
2022-11-24T04:27:14.729Z,7.05
2022-11-24T04:28:16.595Z,6.72
2022-11-24T04:29:18.466Z,6.38
2022-11-24T04:30:20.917Z,6.22
2022-11-24T04:31:22.853Z,7.00
2022-11-24T04:32:24.929Z,6.65
2022-11-24T04:33:26.788Z,7.07
2022-11-24T04:34:28.676Z,7.47
2022-11-24T04:35:30.520Z,6.57
2022-11-24T04:36:32.437Z,6.82
2022-11-24T04:37:34.538Z,6.72
2022-11-24T04:39:19.773Z,6.07
2022-11-24T04:39:58.318Z,6.40
2022-11-24T04:41:03.542Z,6.55
2022-11-24T04:42:05.907Z,6.10
2022-11-24T04:43:07.754Z,5.43
2022-11-24T04:44:09.595Z,6.22
2022-11-24T04:45:11.513Z,6.15
2022-11-24T04:46:13.392Z,6.35
2022-11-24T04:47:16.077Z,5.53
2022-11-24T04:48:17.912Z,5.57
2022-11-24T04:49:19.843Z,6.15
2022-11-24T04:50:21.977Z,7.32
2022-11-24T04:51:23.805Z,5.22
2022-11-24T04:52:25.658Z,5.82
2022-11-24T04:53:28.125Z,6.85
2022-11-24T04:54:29.963Z,5.43
2022-11-24T04:55:31.781Z,6.75
2022-11-24T04:56:33.801Z,6.10
2022-11-24T04:57:35.619Z,5.18
2022-11-24T04:58:37.536Z,7.22
2022-11-24T04:59:39.358Z,5.40
2022-11-24T05:00:41.242Z,5.85
2022-11-24T05:01:43.578Z,4.97
2022-11-24T05:02:45.511Z,6.45
2022-11-24T05:03:47.415Z,5.30
2022-11-24T05:04:49.318Z,6.13
2022-11-24T05:05:51.157Z,6.30
2022-11-24T05:06:53.606Z,5.43
2022-11-24T05:07:55.748Z,4.55
2022-11-24T05:08:57.543Z,4.57
2022-11-24T05:10:18.220Z,5.68
2022-11-24T05:11:20.158Z,5.78
2022-11-24T05:12:22.109Z,6.35
2022-11-24T05:13:24.340Z,6.03
2022-11-24T05:14:27.662Z,5.15
2022-11-24T05:15:29.431Z,5.05
2022-11-24T05:16:31.342Z,5.95
2022-11-24T05:17:34.569Z,4.82
2022-11-24T05:18:37.806Z,4.97
2022-11-24T05:19:39.591Z,6.03
2022-11-24T05:20:41.346Z,4.38
2022-11-24T05:21:43.170Z,5.38
2022-11-24T05:22:45.315Z,5.30
2022-11-24T05:23:47.115Z,4.38
2022-11-24T05:24:48.878Z,4.78
2022-11-24T05:25:51.225Z,4.47
2022-11-24T05:26:53.012Z,5.07
2022-11-24T05:27:54.813Z,5.07
2022-11-24T05:28:56.673Z,4.35
2022-11-24T05:29:58.568Z,4.18
2022-11-24T05:31:03.533Z,5.05
2022-11-24T05:32:05.436Z,4.28
2022-11-24T05:33:08.049Z,4.30
2022-11-24T05:34:10.064Z,4.57
2022-11-24T05:35:11.995Z,3.60
2022-11-24T05:36:33.775Z,5.35
2022-11-24T05:37:35.606Z,4.05
2022-11-24T05:38:37.417Z,3.92
2022-11-24T05:39:39.238Z,3.40
2022-11-24T05:40:41.220Z,4.43
2022-11-24T05:41:43.031Z,4.68
2022-11-24T05:42:48.063Z,3.53
2022-11-24T05:43:50.231Z,3.45
2022-11-24T05:44:52.479Z,3.38
2022-11-24T05:45:54.298Z,3.92
2022-11-24T05:46:56.130Z,3.75
2022-11-24T05:48:04.238Z,4.22
2022-11-24T05:49:06.074Z,3.92
2022-11-24T05:50:08.710Z,3.60
2022-11-24T05:51:10.528Z,3.53
2022-11-24T05:52:12.480Z,3.85
2022-11-24T05:53:14.299Z,4.28
2022-11-24T05:54:16.149Z,3.13
2022-11-24T05:55:19.541Z,3.35
2022-11-24T05:56:21.477Z,3.53
2022-11-24T05:57:23.284Z,4.00
2022-11-24T05:58:25.118Z,2.92
2022-11-24T05:59:26.958Z,4.28
2022-11-24T06:00:29.219Z,3.47
2022-11-24T06:01:31.269Z,3.78
2022-11-24T06:02:33.199Z,3.67
2022-11-24T06:03:35.066Z,3.38
2022-11-24T06:04:37.204Z,3.45
2022-11-24T06:05:39.224Z,3.38
2022-11-24T06:06:41.153Z,5.05
2022-11-24T06:07:43.088Z,3.13
2022-11-24T06:08:44.932Z,3.53
2022-11-24T06:09:47.084Z,3.35
2022-11-24T06:10:48.887Z,3.33
2022-11-24T06:11:50.651Z,4.60
2022-11-24T06:12:52.836Z,3.13
2022-11-24T06:13:54.710Z,3.45
2022-11-24T06:14:56.660Z,3.92
2022-11-24T06:15:59.218Z,4.00
2022-11-24T06:17:01.253Z,4.07
2022-11-24T06:18:03.509Z,4.10
2022-11-24T06:19:05.423Z,3.22
2022-11-24T06:20:08.211Z,3.88
2022-11-24T06:21:12.376Z,3.78
2022-11-24T06:22:14.329Z,3.50
2022-11-24T06:23:16.353Z,3.63
2022-11-24T06:24:18.982Z,2.92
2022-11-24T06:25:20.843Z,5.38
2022-11-24T06:26:24.307Z,3.80
2022-11-24T06:27:26.143Z,3.78
2022-11-24T06:28:30.733Z,3.20
2022-11-24T06:29:33.726Z,2.92
2022-11-24T06:30:35.638Z,3.50
2022-11-24T06:31:37.504Z,3.80
2022-11-24T06:32:49.076Z,3.15
2022-11-24T06:33:51.510Z,4.75
2022-11-24T06:34:53.318Z,3.53
2022-11-24T06:35:58.802Z,4.03
2022-11-24T06:37:00.950Z,3.85
2022-11-24T06:38:02.772Z,3.63
2022-11-24T06:39:05.138Z,3.42
2022-11-24T06:40:09.034Z,3.67
2022-11-24T06:41:15.352Z,3.90
2022-11-24T06:42:18.927Z,3.00
2022-11-24T06:43:20.796Z,4.63
2022-11-24T06:44:22.677Z,3.20
2022-11-24T06:45:25.326Z,3.75
2022-11-24T06:46:27.166Z,4.53
2022-11-24T06:47:28.957Z,4.97
2022-11-24T06:48:30.910Z,3.92
2022-11-24T06:49:32.725Z,3.58
2022-11-24T06:50:34.582Z,3.80
2022-11-24T06:51:36.400Z,3.95
2022-11-24T06:52:38.217Z,3.10
2022-11-24T06:53:40.611Z,4.53
2022-11-24T06:54:43.457Z,3.38
2022-11-24T06:55:45.926Z,3.97
2022-11-24T06:56:47.744Z,3.50
2022-11-24T06:57:49.516Z,4.15
2022-11-24T06:58:52.457Z,3.80
2022-11-24T06:59:54.237Z,3.33
2022-11-24T07:00:56.133Z,2.78
2022-11-24T07:01:57.988Z,3.63
2022-11-24T07:03:00.640Z,2.97
2022-11-24T07:04:02.579Z,2.95
2022-11-24T07:05:04.492Z,2.92
2022-11-24T07:06:06.419Z,3.15
2022-11-24T07:07:08.253Z,3.28
2022-11-24T07:08:13.249Z,3.35
2022-11-24T07:09:19.280Z,4.00
2022-11-24T07:10:21.078Z,3.30
2022-11-24T07:11:24.427Z,2.90
2022-11-24T07:12:26.200Z,3.42
2022-11-24T07:13:29.224Z,5.32
2022-11-24T07:14:31.308Z,3.13
2022-11-24T07:15:33.338Z,3.67
2022-11-24T07:16:35.749Z,3.70
2022-11-24T07:17:40.964Z,4.53
2022-11-24T07:18:43.679Z,3.42
2022-11-24T07:19:45.491Z,3.92
2022-11-24T07:20:47.263Z,4.60
2022-11-24T07:21:49.044Z,3.97
2022-11-24T07:22:54.511Z,3.70
2022-11-24T07:23:57.056Z,3.28
2022-11-24T07:24:58.985Z,3.95
2022-11-24T07:26:06.923Z,5.65
2022-11-24T07:27:08.947Z,3.80
2022-11-24T07:28:10.810Z,3.72
2022-11-24T07:29:12.589Z,2.90
2022-11-24T07:30:14.478Z,4.38
2022-11-24T07:31:18.860Z,3.88
2022-11-24T07:32:20.874Z,3.05
2022-11-24T07:33:25.174Z,3.63
2022-11-24T07:34:26.965Z,4.10
2022-11-24T07:35:29.180Z,3.03
2022-11-24T07:36:31.068Z,4.53
2022-11-24T07:37:32.859Z,4.43
2022-11-24T07:38:35.474Z,3.97
2022-11-24T07:39:37.306Z,3.22
2022-11-24T07:40:39.075Z,3.15
2022-11-24T07:41:40.959Z,3.75
2022-11-24T07:42:42.754Z,3.80
2022-11-24T07:43:44.624Z,2.78
2022-11-24T07:44:46.397Z,3.63
2022-11-24T07:45:54.390Z,3.55
2022-11-24T07:46:56.474Z,3.97
2022-11-24T07:47:58.342Z,3.38
2022-11-24T07:49:00.147Z,3.13
2022-11-24T07:50:01.959Z,4.00
2022-11-24T07:51:04.649Z,3.42
2022-11-24T07:52:07.805Z,4.75
2022-11-24T07:53:09.669Z,3.35
2022-11-24T07:54:11.644Z,4.13
2022-11-24T07:55:13.564Z,3.13
2022-11-24T07:56:15.383Z,2.88
2022-11-24T07:57:17.159Z,3.25
2022-11-24T07:58:18.962Z,3.13
2022-11-24T07:59:20.766Z,3.95
2022-11-24T08:00:22.595Z,3.67
2022-11-24T08:01:24.451Z,3.78
2022-11-24T08:02:26.276Z,3.20
2022-11-24T08:03:28.256Z,3.30
2022-11-24T08:04:30.136Z,4.18
2022-11-24T08:05:31.923Z,3.67
2022-11-24T08:06:39.712Z,4.15
2022-11-24T08:07:43.936Z,3.30
2022-11-24T08:08:46.049Z,4.13
2022-11-24T08:09:50.233Z,3.95
2022-11-24T08:10:52.263Z,3.38
2022-11-24T08:11:54.060Z,4.57
2022-11-24T08:12:59.682Z,3.10
2022-11-24T08:14:01.518Z,5.72
2022-11-24T08:15:07.842Z,5.55
2022-11-24T08:16:13.903Z,4.25
2022-11-24T08:17:16.553Z,6.75
2022-11-24T08:18:18.348Z,4.65
2022-11-24T08:19:21.536Z,4.68
2022-11-24T08:20:23.373Z,5.57
2022-11-24T08:21:25.680Z,4.40
2022-11-24T08:22:27.735Z,6.68
2022-11-24T08:23:29.933Z,6.65
2022-11-24T08:24:32.086Z,5.38
2022-11-24T08:25:34.385Z,4.90
2022-11-24T08:26:36.335Z,7.18
2022-11-24T08:27:40.038Z,4.43
2022-11-24T08:28:42.219Z,5.35
2022-11-24T08:29:44.083Z,5.47
2022-11-24T08:30:45.989Z,5.05
2022-11-24T08:31:47.839Z,3.92
2022-11-24T08:32:49.669Z,4.05
2022-11-24T08:33:51.560Z,3.72
2022-11-24T08:34:59.498Z,3.60
2022-11-24T08:36:06.306Z,2.53
2022-11-24T08:37:08.240Z,2.25
2022-11-24T08:38:10.072Z,2.45
2022-11-24T08:39:12.053Z,2.60
2022-11-24T08:40:13.994Z,2.60
2022-11-24T08:41:17.119Z,2.25
2022-11-24T08:42:18.938Z,2.83
2022-11-24T08:43:20.772Z,3.08
2022-11-24T08:44:22.901Z,2.38
2022-11-24T08:45:25.636Z,2.78
2022-11-24T08:46:27.860Z,1.70
2022-11-24T08:47:29.741Z,2.40
2022-11-24T08:48:32.136Z,2.97
2022-11-24T08:49:33.993Z,2.78
2022-11-24T08:50:37.474Z,2.20
2022-11-24T08:51:39.283Z,2.35
2022-11-24T08:52:41.178Z,2.67
2022-11-24T08:53:43.457Z,3.08
2022-11-24T08:54:45.343Z,2.10
2022-11-24T08:55:47.227Z,3.17
2022-11-24T08:56:49.256Z,2.33
2022-11-24T08:57:51.061Z,2.55
2022-11-24T08:58:53.417Z,2.55
2022-11-24T08:59:55.238Z,2.20
2022-11-24T09:01:03.791Z,3.13
2022-11-24T09:02:06.251Z,2.78
2022-11-24T09:03:10.904Z,2.47
2022-11-24T09:04:12.745Z,3.95
2022-11-24T09:05:49.687Z,3.83
2022-11-24T09:06:36.467Z,4.20
2022-11-24T09:07:38.335Z,5.30
2022-11-24T09:08:40.185Z,10.43
2022-11-24T09:09:41.963Z,10.65
2022-11-24T09:10:43.972Z,5.75
2022-11-24T09:11:45.798Z,3.35
2022-11-24T09:12:47.914Z,3.25
2022-11-24T09:13:50.036Z,3.67
2022-11-24T09:14:51.874Z,4.47
2022-11-24T09:15:53.695Z,2.65
2022-11-24T09:16:55.621Z,3.40
2022-11-24T09:17:57.516Z,3.28
2022-11-24T09:19:00.691Z,3.67
2022-11-24T09:20:02.997Z,2.70
2022-11-24T09:21:10.600Z,5.57
2022-11-24T09:22:12.378Z,3.92
2022-11-24T09:23:14.672Z,2.95
2022-11-24T09:24:17.208Z,2.58
2022-11-24T09:25:19.117Z,2.65
2022-11-24T09:26:27.756Z,2.17
2022-11-24T09:27:29.617Z,3.60
2022-11-24T09:28:31.434Z,3.47
2022-11-24T09:29:33.527Z,5.22
2022-11-24T09:30:35.706Z,3.10
2022-11-24T09:31:39.123Z,2.70
2022-11-24T09:32:40.953Z,2.03
2022-11-24T09:33:43.070Z,1.48
2022-11-24T09:34:44.875Z,2.13
2022-11-24T09:35:49.466Z,2.92
2022-11-24T09:36:51.579Z,3.70
2022-11-24T09:37:53.437Z,3.10
2022-11-24T09:38:55.457Z,1.60
2022-11-24T09:39:57.269Z,3.40
2022-11-24T09:41:14.585Z,2.92
2022-11-24T09:42:34.635Z,2.88
2022-11-24T09:43:36.411Z,2.20
2022-11-24T09:44:48.662Z,2.85
2022-11-24T09:46:06.517Z,3.08
2022-11-24T09:47:16.674Z,2.25
2022-11-24T09:48:28.771Z,1.95
2022-11-24T09:49:33.574Z,2.55
2022-11-24T09:50:37.409Z,2.50
2022-11-24T09:51:42.381Z,2.10
2022-11-24T09:53:01.377Z,3.58
2022-11-24T09:54:09.253Z,2.35
2022-11-24T09:55:33.097Z,3.22
2022-11-24T09:56:36.749Z,2.65
2022-11-24T09:57:38.992Z,2.50
2022-11-24T09:58:48.250Z,2.80
2022-11-24T09:59:50.148Z,2.75
2022-11-24T10:00:53.426Z,2.70
2022-11-24T10:01:56.559Z,4.28
2022-11-24T10:02:58.910Z,2.78
2022-11-24T10:04:06.368Z,3.33
2022-11-24T10:05:08.679Z,2.55
2022-11-24T10:06:32.184Z,3.25
2022-11-24T10:07:38.129Z,2.20
2022-11-24T10:08:39.983Z,2.90
2022-11-24T10:09:44.813Z,2.08
2022-11-24T10:10:54.858Z,2.25
2022-11-24T10:12:16.950Z,2.63
2022-11-24T10:13:37.581Z,2.47
2022-11-24T10:14:58.937Z,1.80
2022-11-24T10:16:23.808Z,2.53
2022-11-24T10:17:34.642Z,1.92
2022-11-24T10:18:39.351Z,1.98
2022-11-24T10:20:01.814Z,2.13
2022-11-24T10:21:17.939Z,2.20
2022-11-24T10:22:27.971Z,2.42
2022-11-24T10:23:48.882Z,1.90
2022-11-24T10:25:52.432Z,3.20
2022-11-24T10:27:02.036Z,2.80
2022-11-24T10:28:05.389Z,2.08
2022-11-24T10:29:16.313Z,2.20
2022-11-24T10:30:20.159Z,2.22
2022-11-24T10:31:22.089Z,3.08
2022-11-24T10:32:24.011Z,3.45
2022-11-24T10:33:30.939Z,3.47
2022-11-24T10:34:44.736Z,1.98
2022-11-24T10:35:57.072Z,2.42
2022-11-24T10:37:05.012Z,2.45
2022-11-24T10:38:27.079Z,2.97
2022-11-24T10:39:47.512Z,2.85
2022-11-24T10:40:57.358Z,2.45
2022-11-24T10:42:07.526Z,2.38
2022-11-24T10:43:10.515Z,1.92
2022-11-24T10:44:13.911Z,2.10
2022-11-24T10:45:17.070Z,2.90
2022-11-24T10:46:28.905Z,4.03
2022-11-24T10:47:30.824Z,3.30
2022-11-24T10:48:39.570Z,3.72
2022-11-24T10:49:41.703Z,3.80
2022-11-24T10:50:43.594Z,3.45
2022-11-24T10:51:54.366Z,3.63
2022-11-24T10:54:05.831Z,3.05
2022-11-24T10:55:08.053Z,2.63
2022-11-24T10:56:09.867Z,4.28
2022-11-24T10:57:26.348Z,4.10
2022-11-24T10:58:37.258Z,2.75
2022-11-24T10:59:40.512Z,2.50
2022-11-24T11:00:42.383Z,2.75
2022-11-24T11:01:44.276Z,2.25
2022-11-24T11:02:47.579Z,3.50
2022-11-24T11:03:51.052Z,3.90
2022-11-24T11:04:52.938Z,3.25
2022-11-24T11:05:54.827Z,2.75
2022-11-24T11:07:08.586Z,3.50
2022-11-24T11:08:10.690Z,1.75
2022-11-24T11:09:22.417Z,1.83
2022-11-24T11:10:24.373Z,2.58
2022-11-24T11:11:29.479Z,3.22
2022-11-24T11:12:46.605Z,2.22
2022-11-24T11:13:56.886Z,2.10
2022-11-24T11:15:20.720Z,3.13
2022-11-24T11:16:25.446Z,3.50
2022-11-24T11:17:34.726Z,2.03
2022-11-24T11:18:36.527Z,2.92
2022-11-24T11:20:01.678Z,2.35
2022-11-24T11:21:02.514Z,4.68
2022-11-24T11:22:04.331Z,4.03
2022-11-24T11:23:26.750Z,7.03
2022-11-24T11:24:29.016Z,3.92
2022-11-24T11:25:35.352Z,3.05
2022-11-24T11:26:37.918Z,2.10
2022-11-24T11:27:40.441Z,2.25
2022-11-24T11:28:42.251Z,1.90
2022-11-24T11:31:17.427Z,3.30
2022-11-24T11:34:06.441Z,2.15
2022-11-24T11:35:11.869Z,2.15
2022-11-24T11:36:14.587Z,2.30
2022-11-24T11:37:18.090Z,1.90
2022-11-24T11:38:20.351Z,2.35
2022-11-24T11:39:48.290Z,2.53
2022-11-24T11:40:51.316Z,1.98
2022-11-24T11:41:57.343Z,2.17
2022-11-24T11:43:34.355Z,1.63
2022-11-24T11:44:45.507Z,2.13
2022-11-24T11:45:51.001Z,1.60
2022-11-24T11:46:54.112Z,1.55
2022-11-24T11:47:59.428Z,1.80
2022-11-24T11:49:01.410Z,1.75
2022-11-24T11:50:03.271Z,1.52
2022-11-24T11:51:24.018Z,1.27
2022-11-24T11:52:33.057Z,1.40
2022-11-24T11:53:38.211Z,1.63
2022-11-24T11:54:49.048Z,1.85
2022-11-24T11:55:54.524Z,1.65
2022-11-24T11:57:10.341Z,1.58
2022-11-24T11:58:22.588Z,1.98
2022-11-24T11:59:36.074Z,1.83
2022-11-24T12:00:39.450Z,1.50
2022-11-24T12:01:59.683Z,2.45
2022-11-24T12:03:20.437Z,1.73
2022-11-24T12:04:34.595Z,2.63
2022-11-24T12:05:55.006Z,2.03
2022-11-24T12:07:00.043Z,2.03
2022-11-24T12:08:20.485Z,2.05
2022-11-24T12:09:32.262Z,1.92
2022-11-24T12:10:39.835Z,1.20
2022-11-24T12:12:00.307Z,1.58
2022-11-24T12:13:10.934Z,1.83
2022-11-24T12:14:12.759Z,1.02
2022-11-24T12:15:33.042Z,2.88
2022-11-24T12:16:41.793Z,2.80
2022-11-24T12:17:51.464Z,1.50
2022-11-24T12:19:08.395Z,1.67
2022-11-24T12:20:16.181Z,1.65
2022-11-24T12:21:27.902Z,1.55
2022-11-24T12:22:35.500Z,1.27
2022-11-24T12:23:37.370Z,2.03
2022-11-24T12:24:59.463Z,1.75
2022-11-24T12:26:05.727Z,1.27
2022-11-24T12:27:22.569Z,1.55
2022-11-24T12:28:34.455Z,1.35
2022-11-24T12:29:39.242Z,1.45
2022-11-24T12:30:56.210Z,1.55
2022-11-24T12:31:58.030Z,1.30
2022-11-24T12:33:12.561Z,1.33
2022-11-24T12:34:40.658Z,1.20
2022-11-24T12:35:43.677Z,2.20
2022-11-24T12:36:56.156Z,1.48
2022-11-24T12:38:10.025Z,1.90
2022-11-24T12:39:30.676Z,1.42
2022-11-24T12:40:46.592Z,1.33
2022-11-24T12:41:49.066Z,1.60
2022-11-24T12:42:59.697Z,1.40
2022-11-24T12:44:02.146Z,1.25
2022-11-24T12:45:04.015Z,1.25
2022-11-24T12:46:13.953Z,1.83
2022-11-24T12:47:22.084Z,1.30
2022-11-24T12:48:39.030Z,1.38
2022-11-24T12:49:56.781Z,1.20
2022-11-24T12:50:58.855Z,1.98
2022-11-24T12:52:08.282Z,1.40
2022-11-24T12:53:10.059Z,1.45
2022-11-24T12:54:13.431Z,1.48
2022-11-24T12:55:17.735Z,1.48
2022-11-24T12:56:24.256Z,1.60
2022-11-24T12:57:26.092Z,1.40
2022-11-24T12:58:42.886Z,1.00
2022-11-24T13:00:03.651Z,1.50
2022-11-24T13:01:31.565Z,1.15
2022-11-24T13:02:39.731Z,1.33
2022-11-24T13:03:44.687Z,1.50
2022-11-24T13:05:04.381Z,1.10
2022-11-24T13:06:29.196Z,1.40
2022-11-24T13:07:43.612Z,2.15
2022-11-24T13:08:45.533Z,1.00
2022-11-24T13:10:06.174Z,1.23
2022-11-24T13:11:37.549Z,1.23
2022-11-24T13:12:54.559Z,0.85
2022-11-24T13:14:00.536Z,1.30
2022-11-24T13:15:36.156Z,1.42
2022-11-24T13:17:06.153Z,1.13
2022-11-24T13:18:29.822Z,1.33
2022-11-24T13:19:33.698Z,1.98
2022-11-24T13:20:39.077Z,1.75
2022-11-24T13:21:40.874Z,1.00
2022-11-24T13:22:47.275Z,1.20
2022-11-24T13:23:56.162Z,1.42
2022-11-24T13:25:09.844Z,1.25
2022-11-24T13:26:15.551Z,1.52
2022-11-24T13:27:18.887Z,2.20
2022-11-24T13:29:00.708Z,1.00
2022-11-24T13:30:01.047Z,1.40
2022-11-24T13:31:22.093Z,2.40
2022-11-24T13:33:30.564Z,1.40
2022-11-24T13:34:38.607Z,1.33
2022-11-24T13:35:41.449Z,1.42
2022-11-24T13:36:53.575Z,2.00
2022-11-24T13:37:55.485Z,2.17
2022-11-24T13:38:57.870Z,4.00
2022-11-24T13:40:00.647Z,3.17
2022-11-24T13:41:21.387Z,2.35
2022-11-24T13:42:42.922Z,1.95
2022-11-24T13:44:05.932Z,3.03
2022-11-24T13:45:27.719Z,1.90
2022-11-24T13:46:48.406Z,1.92
2022-11-24T13:47:50.306Z,1.67
2022-11-24T13:48:52.818Z,1.77
2022-11-24T13:49:54.620Z,1.48
2022-11-24T13:50:56.939Z,1.50
2022-11-24T13:52:18.687Z,2.05
2022-11-24T13:53:39.287Z,1.80
2022-11-24T13:54:41.485Z,1.38
2022-11-24T13:55:52.652Z,1.25
2022-11-24T13:57:14.402Z,1.65
2022-11-24T13:58:26.222Z,1.73
2022-11-24T13:59:33.138Z,1.27
2022-11-24T14:00:36.513Z,1.42
2022-11-24T14:01:40.842Z,1.27
2022-11-24T14:02:43.191Z,2.22
2022-11-24T14:04:07.296Z,2.38
2022-11-24T14:05:06.950Z,2.15
2022-11-24T14:06:16.159Z,2.08
2022-11-24T14:07:18.199Z,1.70
2022-11-24T14:08:30.444Z,1.98
2022-11-24T14:09:32.354Z,2.67
2022-11-24T14:10:36.267Z,1.73
2022-11-24T14:11:38.240Z,1.95
2022-11-24T14:12:40.073Z,1.67
2022-11-24T14:13:41.907Z,2.33
2022-11-24T14:14:44.885Z,3.38
2022-11-24T14:15:58.916Z,2.88
2022-11-24T14:17:07.323Z,3.72
2022-11-24T14:18:21.900Z,2.22
2022-11-24T14:19:27.973Z,2.13
2022-11-24T14:20:32.751Z,3.03
2022-11-24T14:21:36.295Z,2.75
2022-11-24T14:22:41.300Z,2.00
2022-11-24T14:23:48.147Z,2.97
2022-11-24T14:24:53.966Z,2.03
2022-11-24T14:25:55.833Z,2.30
2022-11-24T14:26:57.721Z,2.35
2022-11-24T14:28:00.064Z,2.15
2022-11-24T14:29:03.874Z,1.58
2022-11-24T14:30:17.934Z,2.03
2022-11-24T14:31:22.617Z,2.50
2022-11-24T14:32:24.682Z,2.30
2022-11-24T14:33:26.555Z,4.53
2022-11-24T14:34:29.314Z,3.05